• Join FlightAware (Why Join?)
  • Login
  • US Flag 
07:49AM EDT


 

Airport Tracker/Info


-or-


 

Live Flight TrackerFlight Track Log ✈ EJA982 ✈ 25-Jul-2013 ✈ KPNA - KSTS

Flight Track Log - Related Links

Times and Time Zones

All times are in EDT time to prevent confusion due to time zone crossing. See the EJA982 flight status page for this flight to view local times or setup timezone preferences in your user account.

Time Position Orientation Groundspeed Altitude Reporting Facility
EDT Latitude Longitude Course Direction KTS MPH feet Rate Location/Type
11:52AM 42.8114 -109.8597 250° West 273 314 8,400  Level Salt Lake Center
11:53AM 42.7742 -109.9275 233° Southwest 255 293 11,600 2,340 Climbing Salt Lake Center
11:54AM 42.5612 -110.7203 251° West  Level Estimated
11:54AM 42.7167 -110.0264 232° Southwest 311 358 13,300  Level Salt Lake Center
11:55AM 42.5211 -110.8711 250° West  Level Estimated
11:55AM 42.6889 -110.1589 254° West 373 429 16,400  Level Salt Lake Center
11:56AM 42.4809 -111.0218 250° West  Level Estimated
11:56AM 42.6586 -110.3136 255° West 380 437 18,800  Level Salt Lake Center
11:57AM 42.4404 -111.1723 250° West  Level Estimated
11:57AM 42.6300 -110.4489 254° West 387 445 20,600  Level Salt Lake Center
11:58AM 42.5972 -110.6106 255° West 397 457 22,000 1,380 Climbing Salt Lake Center
11:59AM 42.5681 -110.7528 254° West 407 468 23,500 1,500 Climbing Salt Lake Center
12:00PM 42.5333 -110.9206 254° West 414 476 25,100 1,440 Climbing Salt Lake Center
12:01PM 42.4972 -111.0875 254° West 420 483 26,600 1,200 Climbing Salt Lake Center
12:02PM 42.4650 -111.2419 254° West 425 489 27,700 1,020 Climbing Salt Lake Center
12:03PM 42.4303 -111.4008 254° West 438 504 28,800 1,020 Climbing Salt Lake Center
12:04PM 42.3956 -111.5622 254° West 447 514 29,900 1,020 Climbing Salt Lake Center
12:05PM 42.3600 -111.7247 254° West 452 520 31,000 1,740 Climbing Salt Lake Center
12:07PM 42.3181 -111.9164 254° West 446 513 33,600 2,280 Climbing Salt Lake Center
12:08PM 42.2836 -112.0708 253° West 435 501 35,800 1,860 Climbing Salt Lake Center
12:09PM 42.2511 -112.2189 254° West 419 482 37,500 1,500 Climbing Salt Lake Center
12:10PM 42.2172 -112.3703 253° West 421 484 38,900 1,200 Climbing Salt Lake Center
12:11PM 42.1789 -112.5169 251° West 421 484 40,000 480 Climbing Salt Lake Center
12:12PM 42.1242 -112.6686 244° Southwest 441 507 40,000  Level Salt Lake Center
12:13PM 42.0594 -112.8636 246° West 469 540 40,000  Level Salt Lake Center
12:14PM 42.0067 -113.0303 247° West 484 557 40,000  Level Salt Lake Center
12:15PM 41.9561 -113.1953 248° West 483 556 40,000  Level Salt Lake Center
12:16PM 41.9053 -113.3586 247° West 478 550 40,000  Level Salt Lake Center
12:17PM 41.8558 -113.5208 248° West 473 544 40,000  Level Salt Lake Center
12:18PM 41.7944 -113.7158 247° West 477 549 40,000  Level Salt Lake Center
12:19PM 41.7439 -113.8786 247° West 476 548 40,000  Level Salt Lake Center
12:20PM 41.6906 -114.0408 246° West 478 550 40,000  Level Salt Lake Center
12:21PM 41.6408 -114.2028 248° West 475 547 40,000  Level Salt Lake Center
12:22PM 41.5883 -114.3661 247° West 479 551 40,000  Level Salt Lake Center
12:23PM 41.5358 -114.5306 247° West 483 556 40,000  Level Salt Lake Center
12:24PM 41.4714 -114.7269 246° West 484 557 40,000  Level Salt Lake Center
12:25PM 41.4167 -114.8922 246° West 479 551 40,000  Level Salt Lake Center
12:26PM 41.3664 -115.0464 247° West 476 548 40,000  Level Salt Lake Center
12:27PM 41.3056 -115.2292 246° West 483 556 40,000  Level Salt Lake Center
12:28PM 41.2528 -115.3839 246° West 482 555 40,000  Level Salt Lake Center
12:29PM 41.1931 -115.5669 247° West 482 555 40,000  Level Salt Lake Center
12:30PM 41.1419 -115.7217 246° West 480 552 40,000  Level Salt Lake Center
12:31PM 41.0892 -115.8758 246° West 481 554 40,000  Level Salt Lake Center
12:32PM 41.0278 -116.0553 246° West 480 552 40,000  Level Salt Lake Center
12:33PM 40.9736 -116.2094 245° Southwest 482 555 40,000  Level Salt Lake Center
12:34PM 40.9125 -116.3906 246° West 485 558 40,000  Level Salt Lake Center
12:35PM 40.8594 -116.5444 246° West 482 555 40,000  Level Salt Lake Center
12:37PM 40.7964 -116.7239 245° Southwest 485 558 40,000  Level Salt Lake Center
12:38PM 40.7431 -116.8761 245° Southwest 482 555 40,000  Level Salt Lake Center
12:39PM 40.6814 -117.0522 245° Southwest 479 551 40,000  Level Salt Lake Center
12:40PM 40.6275 -117.2042 245° Southwest 481 554 40,000  Level Salt Lake Center
12:41PM 40.5636 -117.3794 244° Southwest 479 551 40,000  Level Salt Lake Center
12:42PM 40.5094 -117.5314 245° Southwest 480 552 40,000  Level Salt Lake Center
12:43PM 40.4447 -117.7078 244° Southwest 481 554 40,000  Level Salt Lake Center
12:44PM 40.3900 -117.8589 245° Southwest 481 554 40,000  Level Salt Lake Center
12:45PM 40.3253 -118.0342 244° Southwest 478 550 40,000  Level Salt Lake Center
12:46PM 40.2806 -118.1578 245° Southwest 477 549 40,000  Level Oakland Center
12:47PM 40.2242 -118.3164 245° Southwest 479 551 40,000  Level Oakland Center
12:48PM 40.1683 -118.4736 245° Southwest 478 550 40,000  Level Oakland Center
12:49PM 40.1125 -118.6311 245° Southwest 481 554 40,000  Level Oakland Center
12:50PM 40.0558 -118.7867 245° Southwest 480 552 40,000  Level Oakland Center
12:51PM 39.9881 -118.9761 245° Southwest 484 557 40,000  Level Oakland Center
12:52PM 39.9317 -119.1328 245° Southwest 482 555 40,000  Level Oakland Center
12:53PM 39.8739 -119.2894 244° Southwest 483 556 40,000 -120 Level Oakland Center
12:54PM 39.8161 -119.4467 244° Southwest 483 556 39,800 -780 Descending Oakland Center
12:55PM 39.7594 -119.5986 244° Southwest 472 543 38,500 -900 Descending Oakland Center
12:56PM 39.7075 -119.7481 246° West 459 528 38,000 -300 Descending Oakland Center
12:57PM 39.6511 -119.8992 244° Southwest 468 539 37,900 -1,080 Descending Oakland Center
12:58PM 39.5831 -120.0814 244° Southwest 470 541 35,900 -1,920 Descending Oakland Center
12:59PM 39.5281 -120.2203 243° Southwest 464 534 34,000 -960 Descending Oakland Center
01:00PM 39.4708 -120.3731 244° Southwest 472 543 34,000  Level Oakland Center
01:01PM 39.4114 -120.5294 244° Southwest 482 555 34,000 -720 Level Oakland Center
01:02PM 39.3514 -120.6828 243° Southwest 481 554 32,600 -1,860 Descending Oakland Center
01:03PM 39.2933 -120.8372 244° Southwest 480 552 30,200 -2,640 Descending Oakland Center
01:04PM 39.2214 -121.0217 243° Southwest 482 555 27,300 -2,640 Descending Oakland Center
01:05PM 39.1633 -121.1778 244° Southwest 482 555 24,900 -2,400 Descending Oakland Center
01:06PM 39.1056 -121.3272 244° Southwest 472 543 22,500 -2,400 Descending Oakland Center
01:07PM 39.0472 -121.4739 243° Southwest 466 536 20,100 -2,400 Descending Oakland Center
01:08PM 38.9908 -121.6172 243° Southwest 457 526 17,700 -2,400 Descending Oakland Center
01:09PM 38.9361 -121.7569 243° Southwest 446 513 15,300 -2,640 Descending Oakland Center
01:10PM 38.8742 -121.9125 243° Southwest 416 479 12,400 -1,680 Descending Oakland Center
01:11PM 38.8236 -122.0406 243° Southwest 408 470 11,900 -240 Descending Oakland Center
01:12PM 38.7711 -122.1731 243° Southwest 415 478 12,000 -660 Climbing Oakland Center
01:14PM 38.6878 -122.3252 235° Southwest  Level FlightAware Approximate
01:14PM 38.6792 -122.3981 235° Southwest 335 386 9,900  Level Oakland Center
01:15PM 38.6419 -122.4917 243° Southwest 298 343 7,900 -1,800 Descending Oakland Center
01:16PM 38.6072 -122.5794 243° Southwest 283 326 6,300 -1,620 Descending Oakland Center
01:17PM 38.5858 -122.6694 253° West 270 311 4,600 -1,500 Descending Oakland Center
01:18PM 38.5825 -122.7600 267° West 263 303 3,200 -1,620 Descending Oakland Center
01:19PM 38.5656 -122.8303 253° West 212 244 1,400 -1,320 Descending Oakland Center
01:20PM 38.5328 -122.8236 171° South 157 181 500 -900 Descending Oakland Center